createdAt,value
2017-12-09T00:03:44.815Z,5.57
2017-12-09T00:08:47.042Z,6.30
2017-12-09T00:13:48.717Z,5.10
2017-12-09T00:18:50.285Z,6.27
2017-12-09T00:23:51.784Z,5.30
2017-12-09T00:28:53.295Z,5.43
2017-12-09T00:33:54.818Z,6.63
2017-12-09T00:38:57.067Z,5.60
2017-12-09T00:43:58.570Z,5.73
2017-12-09T00:49:00.813Z,6.03
2017-12-09T00:54:02.324Z,5.67
2017-12-09T00:59:03.799Z,4.90
2017-12-09T01:04:05.315Z,6.30
2017-12-09T01:09:06.832Z,6.20
2017-12-09T01:14:09.085Z,6.20
2017-12-09T01:19:10.585Z,4.30
2017-12-09T01:24:12.828Z,6.50
2017-12-09T01:29:14.385Z,5.37
2017-12-09T01:34:15.948Z,5.30
2017-12-09T01:39:17.468Z,6.17
2017-12-09T01:44:19.709Z,5.37
2017-12-09T01:49:21.223Z,5.90
2017-12-09T01:54:23.467Z,5.40
2017-12-09T01:59:24.960Z,5.30
2017-12-09T02:04:26.554Z,5.63
2017-12-09T02:09:28.078Z,4.93
2017-12-09T02:14:29.608Z,4.80
2017-12-09T02:19:31.097Z,5.30
2017-12-09T02:24:32.646Z,5.03
2017-12-09T02:29:34.092Z,5.20
2017-12-09T02:34:35.596Z,4.50
2017-12-09T02:39:37.100Z,4.50
2017-12-09T02:44:39.394Z,4.30
2017-12-09T02:49:41.670Z,5.37
2017-12-09T02:54:43.910Z,4.90
2017-12-09T02:59:45.429Z,4.70
2017-12-09T03:04:47.692Z,4.87
2017-12-09T03:09:49.167Z,4.77
2017-12-09T03:14:50.666Z,4.77
2017-12-09T03:19:52.183Z,4.30
2017-12-09T03:24:53.665Z,5.73
2017-12-09T03:29:55.159Z,4.20
2017-12-09T03:34:57.517Z,4.70
2017-12-09T03:39:58.993Z,5.20
2017-12-09T03:45:01.273Z,5.50
2017-12-09T03:50:02.747Z,4.30
2017-12-09T03:55:04.958Z,4.53
2017-12-09T04:00:06.461Z,5.43
2017-12-09T04:05:08.037Z,4.03
2017-12-09T04:10:09.532Z,5.30
2017-12-09T04:15:12.188Z,5.37
2017-12-09T04:20:13.712Z,4.67
2017-12-09T04:25:15.229Z,4.80
2017-12-09T04:30:16.805Z,4.70
2017-12-09T04:35:18.289Z,4.50
2017-12-09T04:40:19.781Z,5.83
2017-12-09T04:45:28.413Z,5.10
2017-12-09T04:50:29.905Z,5.87
2017-12-09T04:55:31.397Z,5.93
2017-12-09T05:00:32.928Z,6.40
2017-12-09T05:05:34.410Z,4.90
2017-12-09T05:10:35.932Z,5.00
2017-12-09T05:15:38.320Z,6.33
2017-12-09T05:20:40.605Z,5.90
2017-12-09T05:25:42.884Z,4.93
2017-12-09T05:30:45.513Z,5.20
2017-12-09T05:35:47.051Z,5.60
2017-12-09T05:40:49.324Z,5.30
2017-12-09T05:45:50.777Z,6.07
2017-12-09T05:50:52.273Z,4.90
2017-12-09T05:55:54.492Z,4.93
2017-12-09T06:00:56.021Z,5.10
2017-12-09T06:05:58.288Z,4.80
2017-12-09T06:10:59.780Z,4.90
2017-12-09T06:16:01.274Z,4.90
2017-12-09T06:21:02.775Z,4.10
2017-12-09T06:26:04.260Z,5.20
2017-12-09T06:31:06.554Z,5.40
2017-12-09T06:36:08.774Z,5.10
2017-12-09T06:41:10.269Z,5.13
2017-12-09T06:46:11.813Z,4.40
2017-12-09T06:51:13.321Z,4.20
2017-12-09T06:56:14.829Z,4.80
2017-12-09T07:01:16.320Z,5.17
2017-12-09T07:06:18.130Z,6.07
2017-12-09T07:11:19.621Z,4.97
2017-12-09T07:16:21.872Z,4.03
2017-12-09T07:21:23.389Z,3.83
2017-12-09T07:26:24.902Z,4.57
2017-12-09T07:31:26.444Z,4.47
2017-12-09T07:36:27.958Z,5.07
2017-12-09T07:41:30.200Z,5.00
2017-12-09T07:46:31.756Z,5.07
2017-12-09T07:51:40.180Z,5.20
2017-12-09T07:56:41.665Z,4.63
2017-12-09T08:01:43.159Z,5.03
2017-12-09T08:06:44.745Z,4.97
2017-12-09T08:11:46.977Z,5.17
2017-12-09T08:16:48.472Z,5.03
2017-12-09T08:21:49.967Z,4.33
2017-12-09T08:26:52.281Z,4.30
2017-12-09T08:31:53.853Z,4.27
2017-12-09T08:36:55.363Z,4.90
2017-12-09T08:41:56.919Z,5.27
2017-12-09T08:46:58.398Z,3.97
2017-12-09T08:51:59.909Z,5.70
2017-12-09T08:57:01.436Z,4.47
2017-12-09T09:02:02.980Z,4.43
2017-12-09T09:07:04.540Z,4.50
2017-12-09T09:12:06.190Z,4.10
2017-12-09T09:17:07.741Z,4.33
2017-12-09T09:22:09.228Z,4.10
2017-12-09T09:27:10.759Z,3.73
2017-12-09T09:32:13.025Z,3.80
2017-12-09T09:37:14.552Z,4.53
2017-12-09T09:42:16.079Z,4.73
2017-12-09T09:47:18.357Z,3.90
2017-12-09T09:52:19.906Z,4.43
2017-12-09T09:57:21.416Z,3.97
2017-12-09T10:02:22.945Z,3.63
2017-12-09T10:07:24.481Z,3.40
2017-12-09T10:12:26.007Z,3.40
2017-12-09T10:17:28.289Z,3.70
2017-12-09T10:22:30.776Z,3.20
2017-12-09T10:27:32.992Z,3.10
2017-12-09T10:32:34.521Z,3.60
2017-12-09T10:37:36.914Z,4.23
2017-12-09T10:42:39.164Z,3.70
2017-12-09T10:47:40.698Z,2.87
2017-12-09T10:52:42.263Z,3.20
2017-12-09T10:57:43.736Z,4.37
2017-12-09T11:02:45.253Z,3.10
2017-12-09T11:07:46.758Z,3.60
2017-12-09T11:12:48.277Z,3.63
2017-12-09T11:17:49.805Z,3.30
2017-12-09T11:22:51.361Z,3.20
2017-12-09T11:27:53.014Z,3.73
2017-12-09T11:32:55.264Z,3.43
2017-12-09T11:37:56.809Z,3.30
2017-12-09T11:42:58.448Z,2.80
2017-12-09T11:48:00.060Z,3.13
2017-12-09T11:53:01.658Z,2.50
2017-12-09T11:58:03.944Z,2.50
2017-12-09T12:03:05.535Z,3.97
2017-12-09T12:08:07.129Z,3.13
2017-12-09T12:13:08.670Z,3.47
2017-12-09T12:18:10.855Z,3.70
2017-12-09T12:23:12.329Z,2.97
2017-12-09T12:28:13.786Z,4.23
2017-12-09T12:33:15.258Z,4.27
2017-12-09T12:38:16.747Z,3.57
2017-12-09T12:43:18.184Z,3.07
2017-12-09T12:48:19.659Z,3.00
2017-12-09T12:53:21.124Z,3.83
2017-12-09T12:58:22.600Z,3.80
2017-12-09T13:03:24.308Z,4.23
2017-12-09T13:08:25.785Z,3.40
2017-12-09T13:13:27.209Z,3.87
2017-12-09T13:18:28.684Z,4.77
2017-12-09T13:23:30.118Z,5.30
2017-12-09T13:28:31.770Z,4.53
2017-12-09T13:33:33.895Z,4.77
2017-12-09T13:38:35.374Z,5.13
2017-12-09T13:43:36.819Z,5.00
2017-12-09T13:48:38.370Z,3.90
2017-12-09T13:53:39.818Z,4.80
2017-12-09T13:58:41.994Z,4.60
2017-12-09T14:03:43.596Z,4.67
2017-12-09T14:08:45.185Z,4.43
2017-12-09T14:13:46.722Z,4.37
2017-12-09T14:18:48.275Z,4.00
2017-12-09T14:23:51.166Z,5.17
2017-12-09T14:28:53.495Z,4.10
2017-12-09T14:34:02.104Z,3.80
2017-12-09T14:39:04.516Z,4.53
2017-12-09T14:44:06.035Z,3.73
2017-12-09T14:49:07.501Z,4.07
2017-12-09T14:54:09.204Z,4.40
2017-12-09T14:59:10.770Z,3.77
2017-12-09T15:04:12.225Z,3.40
2017-12-09T15:09:14.512Z,4.50
2017-12-09T15:14:16.119Z,4.30
2017-12-09T15:19:17.687Z,4.03
2017-12-09T15:24:19.269Z,4.40
2017-12-09T15:29:20.873Z,4.10
2017-12-09T15:34:22.380Z,3.03
2017-12-09T15:39:25.036Z,3.33
2017-12-09T15:44:27.123Z,3.77
2017-12-09T15:49:28.783Z,3.33
2017-12-09T15:54:30.317Z,4.17
2017-12-09T15:59:32.132Z,3.70
2017-12-09T16:04:34.394Z,3.57
2017-12-09T16:09:36.136Z,4.37
2017-12-09T16:14:37.686Z,4.60
2017-12-09T16:19:39.233Z,3.90
2017-12-09T16:24:41.510Z,4.17
2017-12-09T16:29:43.765Z,4.30
2017-12-09T16:34:45.365Z,8.33
2017-12-09T16:39:47.718Z,3.47
2017-12-09T16:44:49.252Z,3.57
2017-12-09T16:49:50.864Z,5.77
2017-12-09T16:54:52.316Z,3.60
2017-12-09T16:59:53.919Z,3.33
2017-12-09T17:04:56.234Z,3.07
2017-12-09T17:09:57.773Z,3.90
2017-12-09T17:15:00.037Z,3.23
2017-12-09T17:20:01.559Z,3.80
2017-12-09T17:25:03.325Z,3.80
2017-12-09T17:30:04.830Z,4.10
2017-12-09T17:35:06.378Z,4.10
2017-12-09T17:40:08.121Z,6.53
2017-12-09T17:45:09.697Z,4.80
2017-12-09T17:50:11.272Z,4.70
2017-12-09T17:55:12.753Z,4.53
2017-12-09T18:00:22.992Z,5.17
2017-12-09T18:05:25.289Z,4.40
2017-12-09T18:10:26.841Z,3.50
2017-12-09T18:15:28.431Z,4.03
2017-12-09T18:20:29.976Z,3.87
2017-12-09T18:25:32.239Z,3.60
2017-12-09T18:30:33.813Z,4.10
2017-12-09T18:35:35.392Z,4.70
2017-12-09T18:40:37.662Z,3.77
2017-12-09T18:45:39.196Z,4.90
2017-12-09T18:50:41.369Z,4.37
2017-12-09T18:55:42.902Z,4.70
2017-12-09T19:00:45.214Z,4.40
2017-12-09T19:05:46.853Z,5.73
2017-12-09T19:10:49.197Z,4.20
2017-12-09T19:15:50.804Z,5.00
2017-12-09T19:20:53.114Z,4.80
2017-12-09T19:25:54.633Z,5.60
2017-12-09T19:30:56.166Z,6.50
2017-12-09T19:35:57.718Z,5.63
2017-12-09T19:40:59.412Z,6.53
2017-12-09T19:46:00.915Z,5.40
2017-12-09T19:51:02.454Z,6.10
2017-12-09T19:56:03.942Z,6.43
2017-12-09T20:01:05.467Z,5.33
2017-12-09T20:06:06.986Z,5.70
2017-12-09T20:11:08.494Z,10.73
2017-12-09T20:16:10.056Z,5.93
2017-12-09T20:21:11.575Z,11.57
2017-12-09T20:26:13.157Z,12.40
2017-12-09T20:31:14.690Z,14.50
2017-12-09T20:36:16.340Z,11.90
2017-12-09T20:41:17.901Z,9.90
2017-12-09T20:46:19.582Z,10.47
2017-12-09T20:51:21.139Z,12.73
2017-12-09T20:56:22.687Z,10.20
2017-12-09T21:01:24.962Z,9.00
2017-12-09T21:06:26.499Z,6.77
2017-12-09T21:11:28.035Z,7.60
2017-12-09T21:16:29.617Z,7.40
2017-12-09T21:21:31.204Z,7.07
2017-12-09T21:26:32.770Z,6.70
2017-12-09T21:31:34.334Z,6.70
2017-12-09T21:36:35.901Z,6.10
2017-12-09T21:41:37.487Z,7.30
2017-12-09T21:46:39.086Z,6.77
2017-12-09T21:51:41.424Z,6.30
2017-12-09T21:56:43.029Z,6.60
2017-12-09T22:01:45.371Z,7.20
2017-12-09T22:06:46.947Z,6.47
2017-12-09T22:11:48.525Z,6.30
2017-12-09T22:16:50.049Z,5.80
2017-12-09T22:21:51.586Z,5.73
2017-12-09T22:26:53.108Z,6.00
2017-12-09T22:31:54.710Z,6.07
2017-12-09T22:36:56.292Z,5.73
2017-12-09T22:41:57.844Z,6.67
2017-12-09T22:46:59.383Z,6.10
2017-12-09T22:52:00.901Z,5.70
2017-12-09T22:57:03.182Z,4.93
2017-12-09T23:02:04.713Z,4.70
2017-12-09T23:07:06.233Z,4.90
2017-12-09T23:12:08.516Z,4.17
2017-12-09T23:17:10.045Z,4.87
2017-12-09T23:22:11.560Z,5.23
2017-12-09T23:27:13.065Z,4.53
2017-12-09T23:32:14.584Z,5.13
2017-12-09T23:37:16.845Z,4.23
2017-12-09T23:42:18.366Z,3.90
2017-12-09T23:47:19.878Z,4.17
2017-12-09T23:52:21.429Z,3.60
2017-12-09T23:57:22.948Z,3.90
